Time;durP1;ratioP1;P1;durP2;ratioP2;P2;SDS_P1;SDS_P2;PMS_P1;PMS_P2;Temp;Humidity;BMP_temperature;BMP_pressure;BME280_temperature;BME280_humidity;BME280_pressure;Samples;Min_cycle;Max_cycle;Signal;HPM_P1;HPM_P2
2024/03/03 00:00:24;;;;;;;9.80;5.78;;;;;;;5.83;52.36;100274.03;5020318;28;20561;-71
2024/03/03 00:02:53;;;;;;;14.02;6.93;;;;;;;5.88;52.33;100271.31;5016640;28;20102;-75
2024/03/03 00:05:21;;;;;;;10.68;6.20;;;;;;;6.04;51.62;100279.50;4988015;28;20135;-76
2024/03/03 00:07:47;;;;;;;13.10;7.22;;;;;;;5.89;52.48;100283.41;5024589;28;20181;-75
2024/03/03 00:10:12;;;;;;;13.15;7.22;;;;;;;5.92;52.58;100283.31;5026944;28;20024;-76
2024/03/03 00:12:38;;;;;;;14.27;7.05;;;;;;;5.86;52.52;100268.78;5021802;28;20718;-74
2024/03/03 00:15:03;;;;;;;13.68;7.57;;;;;;;6.00;52.50;100276.16;5030283;28;20032;-75
2024/03/03 00:17:29;;;;;;;14.20;7.63;;;;;;;6.02;52.29;100282.13;5016923;28;20039;-72
2024/03/03 00:19:54;;;;;;;15.52;8.20;;;;;;;6.02;52.73;100286.47;5032342;28;20027;-75
2024/03/03 00:22:20;;;;;;;16.17;7.88;;;;;;;6.01;52.50;100282.19;5016243;28;20049;-75
2024/03/03 00:24:45;;;;;;;11.55;7.13;;;;;;;6.07;52.20;100280.25;5028856;28;20123;-75
2024/03/03 00:27:15;;;;;;;13.85;7.97;;;;;;;5.95;52.74;100271.97;5024711;28;20037;-74
2024/03/03 00:29:41;;;;;;;14.77;7.47;;;;;;;6.08;52.47;100274.19;5024738;28;20064;-71
2024/03/03 00:32:07;;;;;;;15.40;8.48;;;;;;;5.84;53.38;100274.91;5027889;28;20174;-72
2024/03/03 00:34:32;;;;;;;18.10;9.15;;;;;;;6.00;52.76;100286.53;5024395;28;20832;-71
2024/03/03 00:36:58;;;;;;;13.65;8.45;;;;;;;5.95;52.73;100279.75;5029985;28;20533;-71
2024/03/03 00:39:25;;;;;;;16.77;8.00;;;;;;;5.87;53.01;100282.59;5014333;28;20024;-71
2024/03/03 00:41:51;;;;;;;13.10;7.38;;;;;;;6.01;52.59;100283.03;5030478;28;21033;-71
2024/03/03 00:44:16;;;;;;;15.35;8.43;;;;;;;5.91;53.12;100286.81;5025134;28;20036;-71
2024/03/03 00:46:42;;;;;;;16.48;8.70;;;;;;;5.95;52.80;100283.22;5023732;28;20068;-71
2024/03/03 00:49:07;;;;;;;17.48;9.57;;;;;;;5.94;52.87;100286.69;5012603;28;20128;-72
2024/03/03 00:51:33;;;;;;;17.13;7.97;;;;;;;5.90;52.96;100282.50;5016099;28;20037;-71
2024/03/03 00:54:05;;;;;;;18.00;8.30;;;;;;;5.75;53.23;100291.59;5014064;28;20107;-71
2024/03/03 00:56:31;;;;;;;16.88;8.82;;;;;;;5.79;53.36;100288.03;5014050;28;20112;-73
2024/03/03 00:58:57;;;;;;;19.33;9.48;;;;;;;5.95;52.78;100288.41;5014646;28;20032;-75
2024/03/03 01:01:22;;;;;;;18.30;9.40;;;;;;;5.85;52.84;100286.97;5016416;28;20481;-76
2024/03/03 01:03:48;;;;;;;21.20;10.00;;;;;;;5.70;53.57;100288.25;5013721;28;21241;-75
2024/03/03 01:06:15;;;;;;;22.25;8.85;;;;;;;5.83;53.21;100273.22;5011079;28;20032;-75
2024/03/03 01:08:41;;;;;;;15.35;8.40;;;;;;;5.77;53.34;100286.34;5012063;28;20039;-74
2024/03/03 01:11:06;;;;;;;15.93;8.55;;;;;;;5.75;53.25;100278.63;5024495;28;20078;-75
2024/03/03 01:13:32;;;;;;;18.58;9.50;;;;;;;5.75;53.55;100277.75;5020735;28;20037;-73
2024/03/03 01:16:00;;;;;;;22.48;9.70;;;;;;;5.84;53.20;100267.13;5027362;28;20040;-77
2024/03/03 01:18:29;;;;;;;17.65;8.73;;;;;;;5.83;53.18;100268.00;5018580;28;20386;-75
2024/03/03 01:20:55;;;;;;;21.40;9.48;;;;;;;5.73;53.60;100280.41;5023709;28;20044;-72
2024/03/03 01:23:21;;;;;;;17.63;8.88;;;;;;;5.83;53.11;100284.41;5025679;28;20047;-72
2024/03/03 01:25:51;;;;;;;18.40;9.98;;;;;;;5.74;53.48;100274.31;5015320;28;20351;-75
2024/03/03 01:28:17;;;;;;;19.30;8.90;;;;;;;5.80;53.34;100268.97;5028165;28;20544;-72
2024/03/03 01:30:42;;;;;;;18.75;9.40;;;;;;;5.67;53.77;100273.66;5015429;28;20036;-72
2024/03/03 01:33:07;;;;;;;17.45;9.77;;;;;;;5.60;54.07;100266.94;5030266;28;20058;-72
2024/03/03 01:35:33;;;;;;;18.63;9.73;;;;;;;5.68;54.00;100266.72;5027370;28;20118;-72
2024/03/03 01:37:58;;;;;;;20.42;10.35;;;;;;;5.65;53.87;100270.25;5023361;28;20114;-72
2024/03/03 01:40:24;;;;;;;17.45;9.20;;;;;;;5.55;54.61;100266.25;5028253;28;20441;-76
2024/03/03 01:42:56;;;;;;;17.83;9.75;;;;;;;5.62;54.24;100265.16;5022408;28;20144;-72
2024/03/03 01:45:25;;;;;;;22.05;9.77;;;;;;;5.59;54.37;100275.63;5022665;28;20498;-73
2024/03/03 01:47:54;;;;;;;23.40;10.43;;;;;;;5.62;54.14;100275.53;5020371;28;20040;-73
2024/03/03 01:50:21;;;;;;;18.55;9.43;;;;;;;5.55;54.27;100273.19;5028244;28;20045;-71
2024/03/03 01:52:49;;;;;;;19.95;9.75;;;;;;;5.49;54.69;100275.94;5017235;28;21932;-71
2024/03/03 01:55:20;;;;;;;20.15;10.45;;;;;;;5.47;54.68;100270.78;5014994;28;20068;-71
2024/03/03 01:57:47;;;;;;;23.50;10.70;;;;;;;5.50;54.35;100268.09;5021771;28;20045;-71
2024/03/03 02:00:13;;;;;;;18.75;10.15;;;;;;;5.34;54.72;100269.44;5034443;28;20124;-71
2024/03/03 02:02:42;;;;;;;18.42;9.13;;;;;;;5.36;54.75;100267.66;5017634;28;20040;-73
2024/03/03 02:05:10;;;;;;;20.73;9.80;;;;;;;5.35;54.96;100273.75;5030609;28;20091;-71
2024/03/03 02:07:36;;;;;;;20.08;9.95;;;;;;;5.33;55.06;100265.16;5023297;28;20044;-76
2024/03/03 02:10:02;;;;;;;15.63;8.32;;;;;;;5.31;54.87;100260.00;5016545;28;20401;-76
2024/03/03 02:12:28;;;;;;;20.60;11.02;;;;;;;5.40;54.61;100257.16;5019463;28;20060;-77
2024/03/03 02:14:56;;;;;;;16.45;9.73;;;;;;;5.28;55.36;100256.63;5018509;28;20051;-76
2024/03/03 02:17:21;;;;;;;23.13;9.82;;;;;;;5.25;55.22;100260.16;5026545;28;20052;-74
2024/03/03 02:19:47;;;;;;;22.02;10.43;;;;;;;5.28;54.90;100257.50;5019471;28;20141;-76
2024/03/03 02:22:13;;;;;;;21.83;9.43;;;;;;;5.18;55.21;100264.66;5017236;28;20110;-75
2024/03/03 02:24:40;;;;;;;21.38;10.20;;;;;;;5.24;55.20;100274.88;5020843;28;20071;-76
2024/03/03 02:27:06;;;;;;;22.05;10.10;;;;;;;5.10;55.50;100266.63;5013929;28;20108;-75
2024/03/03 02:29:31;;;;;;;20.17;9.85;;;;;;;5.10;55.41;100261.47;4999028;28;20535;-77
2024/03/03 02:31:57;;;;;;;23.73;10.52;;;;;;;4.99;55.56;100264.31;5013942;28;20122;-75
2024/03/03 02:34:25;;;;;;;24.85;10.85;;;;;;;5.03;55.91;100267.66;5023927;28;20032;-76
2024/03/03 02:36:53;;;;;;;26.83;11.87;;;;;;;4.96;55.97;100268.72;5013931;28;21760;-77
2024/03/03 02:39:19;;;;;;;23.27;10.52;;;;;;;5.03;55.50;100271.13;5027082;28;20021;-76
2024/03/03 02:41:44;;;;;;;20.13;9.68;;;;;;;4.90;55.83;100269.75;5020168;28;20045;-76
2024/03/03 02:44:10;;;;;;;25.85;11.10;;;;;;;4.91;56.09;100270.59;5011940;28;20530;-76
2024/03/03 02:46:35;;;;;;;18.27;10.65;;;;;;;4.83;56.16;100270.75;5025771;28;20044;-76
2024/03/03 02:49:01;;;;;;;22.05;11.05;;;;;;;4.90;56.20;100268.88;5035313;28;20605;-76
2024/03/03 02:51:27;;;;;;;22.65;10.18;;;;;;;4.83;56.18;100281.09;5012386;28;20047;-75
2024/03/03 02:53:53;;;;;;;19.23;9.15;;;;;;;4.76;56.19;100276.97;5019397;28;21094;-76
2024/03/03 02:56:18;;;;;;;23.38;10.60;;;;;;;4.87;56.17;100281.88;5010298;28;20047;-76
2024/03/03 02:58:44;;;;;;;26.42;12.48;;;;;;;4.95;55.75;100277.41;5019971;28;20119;-76
2024/03/03 03:01:09;;;;;;;23.20;10.38;;;;;;;4.90;56.05;100280.13;5028182;28;20346;-76
2024/03/03 03:03:35;;;;;;;21.55;10.07;;;;;;;4.86;56.03;100277.63;5026592;28;20121;-76
2024/03/03 03:06:00;;;;;;;23.75;10.40;;;;;;;4.96;55.82;100273.91;5012776;28;20151;-76
2024/03/03 03:08:26;;;;;;;23.02;11.20;;;;;;;4.84;56.27;100273.31;5030910;28;20065;-77
2024/03/03 03:10:54;;;;;;;24.63;11.45;;;;;;;4.79;56.29;100276.91;5021417;28;21132;-78
2024/03/03 03:13:20;;;;;;;24.63;13.18;;;;;;;4.81;55.96;100272.53;5017070;28;20040;-78
2024/03/03 03:15:48;;;;;;;22.42;10.48;;;;;;;4.73;56.42;100272.72;5022721;28;20052;-78
2024/03/03 03:18:13;;;;;;;27.10;11.10;;;;;;;4.70;56.84;100277.13;5026313;28;20033;-78
2024/03/03 03:20:39;;;;;;;23.75;10.93;;;;;;;4.60;56.78;100277.34;5028863;28;20218;-75
2024/03/03 03:23:05;;;;;;;20.08;9.90;;;;;;;4.74;56.65;100274.41;5016317;28;20246;-76
2024/03/03 03:25:31;;;;;;;31.42;10.98;;;;;;;4.84;56.35;100288.84;5017547;28;20063;-76
2024/03/03 03:27:57;;;;;;;22.90;12.35;;;;;;;4.73;56.22;100288.25;5035449;28;20641;-76
2024/03/03 03:30:22;;;;;;;24.33;12.20;;;;;;;4.70;56.71;100287.47;5005642;28;20036;-75
2024/03/03 03:32:48;;;;;;;17.70;9.90;;;;;;;4.77;56.75;100292.47;5021604;28;20110;-75
2024/03/03 03:35:13;;;;;;;24.65;10.95;;;;;;;4.58;57.12;100288.63;5028290;28;20067;-76
2024/03/03 03:37:39;;;;;;;26.95;11.98;;;;;;;4.60;57.28;100273.91;5023519;28;20059;-75
2024/03/03 03:40:09;;;;;;;20.95;11.38;;;;;;;4.59;57.40;100286.03;5029685;28;20036;-75
2024/03/03 03:42:36;;;;;;;19.90;10.25;;;;;;;4.71;56.98;100284.84;5028084;28;20111;-75
2024/03/03 03:45:03;;;;;;;28.55;12.32;;;;;;;4.73;56.82;100298.63;5016253;28;20040;-75
2024/03/03 03:47:29;;;;;;;29.25;12.13;;;;;;;4.83;56.35;100291.47;5030153;28;20048;-76
2024/03/03 03:49:55;;;;;;;25.17;11.43;;;;;;;4.82;56.40;100298.38;5023851;28;20168;-71
2024/03/03 03:52:20;;;;;;;24.70;12.18;;;;;;;4.63;56.91;100291.94;5036479;28;20037;-70
2024/03/03 03:54:45;;;;;;;28.42;12.50;;;;;;;4.54;57.16;100287.88;5021658;28;20040;-70
2024/03/03 03:57:11;;;;;;;24.13;11.98;;;;;;;4.49;57.40;100288.88;5029820;28;20185;-74
2024/03/03 03:59:36;;;;;;;25.83;13.52;;;;;;;4.50;57.47;100285.38;5029154;28;20675;-77
2024/03/03 04:02:03;;;;;;;23.77;11.15;;;;;;;4.43;57.90;100280.38;5010477;28;20583;-74
2024/03/03 04:04:33;;;;;;;26.88;12.18;;;;;;;4.47;57.38;100275.94;5032010;28;20032;-74
2024/03/03 04:06:58;;;;;;;29.25;12.93;;;;;;;4.51;57.18;100285.34;5021712;28;20266;-74
2024/03/03 04:09:24;;;;;;;28.00;12.43;;;;;;;4.62;57.08;100292.84;5030121;28;20311;-74
2024/03/03 04:11:49;;;;;;;26.25;11.40;;;;;;;4.70;56.41;100297.84;5018951;28;20036;-75
2024/03/03 04:14:14;;;;;;;26.70;12.88;;;;;;;4.69;56.18;100291.81;5030084;28;20044;-74
2024/03/03 04:16:43;;;;;;;26.17;12.02;;;;;;;4.48;57.65;100287.19;5024272;28;20041;-75
2024/03/03 04:19:08;;;;;;;25.23;12.68;;;;;;;4.45;57.53;100280.31;5033557;28;20035;-74
2024/03/03 04:21:40;;;;;;;30.40;14.13;;;;;;;4.55;57.02;100270.59;5033081;28;20049;-74
2024/03/03 04:24:06;;;;;;;23.73;12.38;;;;;;;4.38;57.92;100277.03;5023644;28;20820;-74
2024/03/03 04:26:32;;;;;;;27.92;12.68;;;;;;;4.32;57.93;100287.53;5030341;28;20126;-74
2024/03/03 04:28:58;;;;;;;25.65;12.27;;;;;;;4.29;58.12;100292.75;5018510;28;20750;-71
2024/03/03 04:31:23;;;;;;;29.92;13.30;;;;;;;4.26;57.81;100282.50;5033754;28;20040;-74
2024/03/03 04:33:49;;;;;;;32.72;15.30;;;;;;;4.24;58.16;100293.78;5018521;28;20036;-72
2024/03/03 04:36:14;;;;;;;31.05;13.45;;;;;;;4.45;56.99;100284.66;5033720;28;20063;-76
2024/03/03 04:38:40;;;;;;;29.98;13.23;;;;;;;4.16;58.38;100281.88;5025337;28;20039;-75
2024/03/03 04:41:19;;;;;;;24.33;12.52;;;;;;;4.06;58.80;100274.34;5030542;28;20437;-74
2024/03/03 04:43:45;;;;;;;27.10;13.70;;;;;;;4.02;58.66;100269.22;5024862;28;20132;-76
2024/03/03 04:46:12;;;;;;;30.38;12.15;;;;;;;4.19;58.44;100280.94;5005193;28;20521;-74
2024/03/03 04:48:38;;;;;;;32.58;13.18;;;;;;;4.25;57.90;100285.09;5015597;28;20021;-70
2024/03/03 04:51:04;;;;;;;25.20;12.45;;;;;;;4.17;58.51;100280.13;5018903;28;21763;-70
2024/03/03 04:53:30;;;;;;;21.92;11.50;;;;;;;4.24;58.08;100279.09;5021817;28;20039;-72
2024/03/03 04:55:56;;;;;;;23.65;12.20;;;;;;;4.09;58.65;100279.44;5015476;28;20258;-72
2024/03/03 04:58:21;;;;;;;29.48;12.77;;;;;;;4.17;58.06;100275.78;5006843;28;20079;-72
2024/03/03 05:00:47;;;;;;;27.73;12.50;;;;;;;4.01;58.44;100275.28;5012883;28;20426;-72
2024/03/03 05:03:12;;;;;;;30.75;13.40;;;;;;;4.07;58.73;100282.06;5010111;28;20025;-72
2024/03/03 05:05:38;;;;;;;26.83;14.00;;;;;;;4.19;57.95;100288.69;5022935;28;20086;-70
2024/03/03 05:08:03;;;;;;;28.00;12.60;;;;;;;4.22;57.94;100281.69;5018226;28;20281;-70
2024/03/03 05:10:29;;;;;;;26.00;11.77;;;;;;;4.00;58.24;100283.91;5024536;28;20064;-72
2024/03/03 05:12:54;;;;;;;27.70;13.32;;;;;;;4.06;58.01;100284.69;5020705;28;20032;-71
2024/03/03 05:15:20;;;;;;;22.55;12.43;;;;;;;4.17;57.70;100287.88;5025342;28;20119;-71
2024/03/03 05:17:45;;;;;;;26.92;11.65;;;;;;;4.10;58.19;100291.50;5021664;28;20051;-72
2024/03/03 05:20:11;;;;;;;26.98;12.95;;;;;;;4.29;57.51;100297.94;5024371;28;20620;-71
2024/03/03 05:22:37;;;;;;;30.25;12.93;;;;;;;4.14;58.18;100293.09;5025411;28;20204;-75
2024/03/03 05:25:04;;;;;;;31.10;14.38;;;;;;;4.07;58.07;100291.56;5020951;28;20121;-72
2024/03/03 05:27:33;;;;;;;30.17;12.98;;;;;;;4.15;57.93;100290.50;5025633;28;20041;-72
2024/03/03 05:30:00;;;;;;;29.65;13.77;;;;;;;4.05;58.46;100288.16;5019788;28;20061;-75
2024/03/03 05:32:26;;;;;;;26.05;12.43;;;;;;;4.12;58.31;100284.53;5013759;28;20083;-76
2024/03/03 05:34:51;;;;;;;31.58;12.80;;;;;;;4.21;58.23;100285.19;5017853;28;20029;-74
2024/03/03 05:37:17;;;;;;;31.55;13.77;;;;;;;4.16;58.00;100291.34;5030702;28;20544;-73
2024/03/03 05:39:42;;;;;;;28.88;12.80;;;;;;;4.29;57.52;100285.00;5027944;28;20963;-74
2024/03/03 05:42:08;;;;;;;33.75;14.50;;;;;;;4.12;58.71;100292.28;5016278;28;22377;-71
2024/03/03 05:44:34;;;;;;;34.00;13.38;;;;;;;4.05;58.77;100293.31;5027030;28;20036;-74
2024/03/03 05:47:00;;;;;;;32.45;13.73;;;;;;;4.13;58.47;100294.00;5012405;28;20049;-75
2024/03/03 05:49:26;;;;;;;27.83;11.95;;;;;;;4.14;58.25;100300.88;5016596;28;20116;-68
2024/03/03 05:51:51;;;;;;;27.30;13.45;;;;;;;4.24;58.02;100299.78;5018112;28;20041;-71
2024/03/03 05:54:17;;;;;;;29.23;12.75;;;;;;;4.24;57.72;100301.53;4998440;28;20356;-71
2024/03/03 05:56:43;;;;;;;30.20;14.25;;;;;;;4.20;58.07;100308.50;5016863;28;20068;-70
2024/03/03 05:59:09;;;;;;;32.40;13.73;;;;;;;4.32;57.65;100309.94;5015432;28;20025;-72
2024/03/03 06:01:34;;;;;;;28.63;14.38;;;;;;;4.12;58.29;100305.22;5007984;28;20052;-70
2024/03/03 06:04:00;;;;;;;30.00;12.35;;;;;;;4.31;57.52;100308.25;5016413;28;20041;-68
2024/03/03 06:06:25;;;;;;;29.23;12.80;;;;;;;4.29;57.70;100303.13;5035847;28;20044;-70
2024/03/03 06:08:51;;;;;;;27.23;12.73;;;;;;;4.24;57.60;100304.13;5006871;28;20052;-68
2024/03/03 06:11:19;;;;;;;26.80;13.15;;;;;;;4.09;58.45;100308.72;5000392;28;20044;-67
2024/03/03 06:13:45;;;;;;;29.63;15.35;;;;;;;4.04;58.35;100294.22;5023363;28;20043;-68
2024/03/03 06:16:11;;;;;;;34.03;14.57;;;;;;;3.85;59.02;100297.22;5018415;28;21665;-67
2024/03/03 06:18:36;;;;;;;31.77;14.75;;;;;;;4.06;58.12;100297.63;5037903;27;20040;-75
2024/03/03 06:21:02;;;;;;;33.13;14.02;;;;;;;3.94;58.89;100304.75;5003547;28;23959;-74
2024/03/03 06:23:28;;;;;;;30.48;13.93;;;;;;;3.97;58.69;100296.09;5025681;28;20037;-74
2024/03/03 06:25:54;;;;;;;29.48;13.70;;;;;;;3.91;59.21;100304.81;5014687;28;20057;-76
2024/03/03 06:28:19;;;;;;;31.75;12.82;;;;;;;4.06;58.76;100302.78;5029222;28;20423;-77
2024/03/03 06:30:46;;;;;;;30.27;14.13;;;;;;;4.12;58.38;100292.28;5006550;28;20036;-77
2024/03/03 06:33:15;;;;;;;30.55;13.23;;;;;;;4.24;57.67;100299.78;5014752;28;20670;-77
2024/03/03 06:35:40;;;;;;;42.63;16.48;;;;;;;4.04;58.48;100304.56;5022390;28;20502;-75
2024/03/03 06:38:06;;;;;;;37.08;14.63;;;;;;;4.16;58.23;100312.03;5010673;28;20047;-75
2024/03/03 06:40:32;;;;;;;39.97;16.13;;;;;;;4.17;58.10;100303.41;5024775;28;22507;-74
2024/03/03 06:42:58;;;;;;;30.88;14.70;;;;;;;4.27;57.69;100307.47;5011638;28;20174;-76
2024/03/03 06:45:24;;;;;;;30.13;13.63;;;;;;;4.31;57.64;100306.50;5023330;28;20028;-75
2024/03/03 06:47:49;;;;;;;36.78;15.13;;;;;;;4.15;58.27;100312.94;5018221;28;20082;-72
2024/03/03 06:50:15;;;;;;;38.45;16.10;;;;;;;4.13;58.55;100301.78;5024743;28;20043;-75
2024/03/03 06:52:41;;;;;;;29.77;14.95;;;;;;;4.19;58.52;100305.06;5020191;28;20036;-72
2024/03/03 06:55:07;;;;;;;30.42;14.23;;;;;;;4.36;58.07;100315.03;5013660;28;20531;-75
2024/03/03 06:57:33;;;;;;;35.00;15.20;;;;;;;4.45;57.80;100311.38;5021857;28;20094;-74
2024/03/03 06:59:59;;;;;;;37.42;15.50;;;;;;;4.49;57.51;100294.88;5006026;28;21945;-73
2024/03/03 07:02:56;;;;;;;33.28;13.93;;;;;;;4.47;57.50;100301.00;5006908;28;20041;-77
2024/03/03 07:05:36;;;;;;;31.40;14.15;;;;;;;4.21;58.63;100294.69;5006124;28;20036;-72
2024/03/03 07:08:04;;;;;;;32.15;13.65;;;;;;;4.52;57.34;100301.72;5017573;28;20067;-76
2024/03/03 07:10:30;;;;;;;30.17;14.15;;;;;;;4.58;57.59;100302.41;5024498;28;20041;-75
2024/03/03 07:12:56;;;;;;;38.55;15.23;;;;;;;5.18;56.82;100300.09;5013706;28;20029;-73
2024/03/03 07:15:22;;;;;;;32.50;14.80;;;;;;;6.81;52.87;100303.03;5020873;28;20279;-75
2024/03/03 07:17:48;;;;;;;28.40;13.50;;;;;;;7.85;50.06;100296.78;5020230;28;20156;-75
2024/03/03 07:20:14;;;;;;;37.45;15.40;;;;;;;8.77;46.66;100300.13;5007624;28;20054;-75
2024/03/03 07:22:40;;;;;;;28.48;14.07;;;;;;;9.06;45.30;100308.47;5027286;28;20128;-75
2024/03/03 07:25:06;;;;;;;25.98;13.43;;;;;;;9.45;44.89;100315.47;5010530;28;20029;-75
2024/03/03 07:27:32;;;;;;;28.55;14.23;;;;;;;9.92;43.40;100315.09;5023912;28;20045;-75
2024/03/03 07:29:58;;;;;;;28.02;13.38;;;;;;;10.22;42.97;100315.44;4977140;28;20025;-74
2024/03/03 07:32:28;;;;;;;23.20;13.52;;;;;;;10.73;41.17;100319.06;5036591;28;20048;-75
2024/03/03 07:34:55;;;;;;;26.40;13.05;;;;;;;11.05;41.12;100312.25;5019975;28;21256;-74
2024/03/03 07:37:21;;;;;;;25.80;12.75;;;;;;;11.15;40.53;100312.66;5021013;28;20071;-74
2024/03/03 07:39:46;;;;;;;26.52;13.93;;;;;;;11.26;40.60;100317.28;5029644;28;20104;-75
2024/03/03 07:42:14;;;;;;;27.30;12.48;;;;;;;11.61;40.11;100314.63;5014386;28;20130;-76
2024/03/03 07:44:39;;;;;;;33.17;13.23;;;;;;;12.05;38.44;100312.22;5028279;28;20084;-72
2024/03/03 07:47:05;;;;;;;21.75;12.82;;;;;;;11.84;39.35;100316.88;5015513;28;20705;-75
2024/03/03 07:49:31;;;;;;;26.77;12.98;;;;;;;12.07;37.99;100317.41;5004792;28;20048;-75
2024/03/03 07:51:57;;;;;;;29.27;13.80;;;;;;;11.96;38.73;100322.38;5014556;28;20041;-75
2024/03/03 07:54:23;;;;;;;26.25;13.73;;;;;;;11.61;39.26;100322.47;5019345;28;20032;-69
2024/03/03 07:56:48;;;;;;;25.15;12.70;;;;;;;10.90;40.28;100330.47;5021139;28;20037;-69
2024/03/03 07:59:14;;;;;;;24.48;13.75;;;;;;;11.01;40.87;100323.78;5017329;28;20781;-69
2024/03/03 08:01:39;;;;;;;24.38;12.45;;;;;;;11.21;40.15;100314.91;5024178;28;20049;-68
2024/03/03 08:04:06;;;;;;;27.75;13.10;;;;;;;10.63;41.07;100318.66;5016735;28;20041;-69
2024/03/03 08:06:32;;;;;;;26.45;12.60;;;;;;;10.86;41.38;100316.75;5014660;28;20047;-68
2024/03/03 08:09:03;;;;;;;29.17;14.27;;;;;;;10.89;41.28;100316.56;5023767;28;20418;-70
2024/03/03 08:11:29;;;;;;;27.17;13.87;;;;;;;10.73;41.44;100306.00;5021436;28;20033;-69
2024/03/03 08:13:54;;;;;;;22.33;12.38;;;;;;;11.53;39.13;100308.94;5027441;28;20039;-71
2024/03/03 08:16:21;;;;;;;25.00;12.63;;;;;;;11.97;39.26;100313.59;5010452;28;20025;-70
2024/03/03 08:18:47;;;;;;;27.20;13.10;;;;;;;12.00;38.93;100316.03;5009269;28;20119;-71
2024/03/03 08:21:13;;;;;;;24.15;12.75;;;;;;;11.64;39.48;100322.28;5006277;28;20045;-70
2024/03/03 08:23:39;;;;;;;31.95;15.10;;;;;;;11.57;40.07;100313.09;5024525;28;20036;-70
2024/03/03 08:26:05;;;;;;;27.98;13.07;;;;;;;12.14;38.75;100321.38;5025855;28;20048;-71
2024/03/03 08:28:36;;;;;;;32.00;13.95;;;;;;;12.41;38.09;100328.63;5014991;28;20259;-69
2024/03/03 08:31:02;;;;;;;31.75;14.77;;;;;;;12.60;37.97;100317.91;5017074;28;20043;-69
2024/03/03 08:33:27;;;;;;;27.23;12.30;;;;;;;12.41;38.34;100326.00;5023604;28;20029;-69
2024/03/03 08:35:53;;;;;;;27.80;13.65;;;;;;;12.02;38.88;100332.50;5026740;28;20771;-69
2024/03/03 08:38:18;;;;;;;23.95;12.85;;;;;;;12.16;38.32;100335.22;4998759;28;20037;-69
2024/03/03 08:40:44;;;;;;;22.95;12.32;;;;;;;12.99;37.33;100335.78;5002037;28;20496;-71
2024/03/03 08:43:10;;;;;;;20.83;11.52;;;;;;;13.13;36.34;100347.25;5018710;28;20047;-71
2024/03/03 08:45:35;;;;;;;23.25;12.68;;;;;;;13.13;36.80;100342.00;5022755;28;20040;-69
2024/03/03 08:48:01;;;;;;;22.70;11.40;;;;;;;12.32;37.10;100356.19;5004378;28;20273;-69
2024/03/03 08:50:26;;;;;;;24.40;12.00;;;;;;;12.10;38.77;100353.91;5011567;28;20028;-69
2024/03/03 08:52:52;;;;;;;24.38;13.23;;;;;;;11.96;38.63;100344.16;5028681;28;20044;-69
2024/03/03 08:55:17;;;;;;;25.90;11.57;;;;;;;12.49;37.75;100348.22;5016065;28;20536;-69
2024/03/03 08:57:43;;;;;;;22.60;12.18;;;;;;;12.38;38.09;100345.38;5011937;28;20041;-69
2024/03/03 09:00:12;;;;;;;24.10;12.48;;;;;;;12.72;37.86;100347.88;5003356;28;20402;-71
2024/03/03 09:02:41;;;;;;;22.40;12.93;;;;;;;12.98;37.39;100335.84;5014837;28;20041;-71
2024/03/03 09:05:11;;;;;;;26.25;12.38;;;;;;;12.13;38.60;100340.63;5017760;28;20043;-71
2024/03/03 09:07:37;;;;;;;22.40;11.15;;;;;;;11.40;39.85;100332.31;5024036;28;20040;-71
2024/03/03 09:10:07;;;;;;;25.15;11.65;;;;;;;11.70;39.57;100329.81;4988566;28;20048;-70
2024/03/03 09:12:32;;;;;;;23.25;11.18;;;;;;;11.45;39.77;100328.50;5012001;28;20505;-69
2024/03/03 09:15:00;;;;;;;24.50;12.20;;;;;;;11.57;40.20;100334.84;5028310;28;20036;-69
2024/03/03 09:17:25;;;;;;;21.40;12.00;;;;;;;11.60;40.17;100341.72;5053096;27;20072;-70
2024/03/03 09:19:51;;;;;;;26.83;13.20;;;;;;;11.86;39.65;100354.28;5034731;28;20114;-69
2024/03/03 09:22:16;;;;;;;20.95;12.23;;;;;;;11.76;39.53;100347.81;5014054;28;20053;-70
2024/03/03 09:24:43;;;;;;;22.13;11.55;;;;;;;12.02;39.06;100363.94;5027433;28;20044;-70
2024/03/03 09:27:12;;;;;;;22.08;11.45;;;;;;;12.48;38.05;100364.88;5016948;28;20545;-69
2024/03/03 09:29:38;;;;;;;19.77;11.15;;;;;;;12.70;38.22;100356.66;5025899;28;20028;-69
2024/03/03 09:32:03;;;;;;;17.48;10.23;;;;;;;12.22;38.83;100360.22;5020593;28;20064;-69
2024/03/03 09:34:31;;;;;;;19.65;12.00;;;;;;;12.03;39.50;100371.72;5028548;28;20556;-69
2024/03/03 09:36:58;;;;;;;22.33;11.05;;;;;;;12.47;39.03;100367.59;5026458;28;20041;-69
2024/03/03 09:39:24;;;;;;;22.13;11.27;;;;;;;12.91;38.71;100364.22;5003458;28;20083;-69
2024/03/03 09:41:57;;;;;;;22.98;12.40;;;;;;;12.45;39.59;100362.44;5011539;28;20222;-69
2024/03/03 09:44:27;;;;;;;22.10;11.90;;;;;;;13.07;37.71;100357.16;5006480;28;21461;-69
2024/03/03 09:46:53;;;;;;;23.75;10.48;;;;;;;12.86;37.95;100356.63;5005069;28;20234;-68
2024/03/03 09:49:22;;;;;;;20.05;10.80;;;;;;;12.61;38.59;100354.53;4998084;28;20625;-68
2024/03/03 09:51:49;;;;;;;21.95;11.68;;;;;;;13.24;38.07;100355.31;5023402;28;20036;-68
2024/03/03 09:54:19;;;;;;;22.33;11.07;;;;;;;13.42;37.68;100350.75;5018774;28;20099;-70
2024/03/03 09:56:46;;;;;;;18.70;9.85;;;;;;;13.77;37.22;100345.16;5020521;28;20033;-68
2024/03/03 09:59:14;;;;;;;20.65;10.77;;;;;;;13.37;36.86;100351.03;5017499;28;20226;-67
2024/03/03 10:01:45;;;;;;;19.13;11.80;;;;;;;13.06;37.03;100347.59;5018478;28;20040;-67
2024/03/03 10:04:12;;;;;;;24.70;11.10;;;;;;;13.23;37.56;100343.16;5023645;28;20356;-67
2024/03/03 10:06:40;;;;;;;18.77;10.88;;;;;;;12.99;38.18;100340.19;5012245;28;20703;-67
2024/03/03 10:09:12;;;;;;;21.73;11.55;;;;;;;13.32;38.48;100342.59;5017647;28;20112;-67
2024/03/03 10:11:40;;;;;;;20.77;11.30;;;;;;;13.39;37.64;100332.56;5010471;28;20898;-69
2024/03/03 10:14:09;;;;;;;17.73;10.30;;;;;;;13.18;38.03;100335.50;5022354;28;20035;-66
2024/03/03 10:16:36;;;;;;;18.27;10.88;;;;;;;13.27;38.65;100335.00;5023563;28;20124;-68
2024/03/03 10:19:03;;;;;;;18.13;10.38;;;;;;;13.36;37.78;100332.72;5029979;28;20518;-67
2024/03/03 10:21:34;;;;;;;22.70;10.75;;;;;;;13.52;37.93;100329.09;4995058;28;20056;-66
2024/03/03 10:24:23;;;;;;;24.08;10.50;;;;;;;13.35;37.75;100331.91;5010928;28;20060;-70
2024/03/03 10:26:55;;;;;;;21.08;10.30;;;;;;;13.51;37.66;100326.56;5023872;28;20513;-69
2024/03/03 10:29:27;;;;;;;19.20;11.40;;;;;;;13.23;38.26;100332.66;5007015;28;20032;-69
2024/03/03 10:31:54;;;;;;;17.00;10.90;;;;;;;13.69;38.14;100324.63;5015795;28;20036;-69
2024/03/03 10:34:23;;;;;;;19.15;10.95;;;;;;;14.03;37.21;100328.63;5018472;28;20076;-69
2024/03/03 10:37:00;;;;;;;24.85;10.80;;;;;;;14.21;36.71;100326.59;5021187;28;20581;-69
2024/03/03 10:39:25;;;;;;;21.80;10.60;;;;;;;13.78;36.69;100342.41;5000735;28;20962;-69
2024/03/03 10:41:52;;;;;;;16.25;10.90;;;;;;;13.78;37.39;100329.28;5016087;28;20702;-68
2024/03/03 10:44:18;;;;;;;18.08;9.77;;;;;;;13.60;37.57;100330.44;4993980;28;20159;-69
2024/03/03 10:46:45;;;;;;;19.75;10.75;;;;;;;13.37;37.80;100334.44;5008176;28;20053;-67
2024/03/03 10:49:14;;;;;;;19.10;10.40;;;;;;;13.40;37.73;100332.44;5019513;28;20056;-68
2024/03/03 10:51:44;;;;;;;20.67;10.48;;;;;;;13.58;38.24;100333.16;5021966;28;20516;-68
2024/03/03 10:54:11;;;;;;;15.52;9.15;;;;;;;13.52;37.29;100339.59;5006458;28;20072;-67
2024/03/03 10:56:38;;;;;;;23.77;11.43;;;;;;;13.72;37.65;100335.78;4994237;28;20048;-68
2024/03/03 10:59:04;;;;;;;20.33;11.10;;;;;;;13.89;37.60;100342.59;5011945;28;20085;-68
2024/03/03 11:01:36;;;;;;;18.48;10.38;;;;;;;13.94;37.20;100335.28;5014270;28;20799;-68
2024/03/03 11:04:05;;;;;;;23.10;10.45;;;;;;;13.59;37.27;100331.38;5021944;28;20202;-67
2024/03/03 11:06:31;;;;;;;19.67;10.10;;;;;;;13.67;38.06;100337.84;4997555;28;20256;-67
2024/03/03 11:08:58;;;;;;;20.02;10.27;;;;;;;13.67;37.95;100327.34;5013461;28;20071;-66
2024/03/03 11:11:25;;;;;;;19.83;10.48;;;;;;;13.50;37.37;100330.97;5016336;28;20078;-68
2024/03/03 11:13:54;;;;;;;17.00;10.40;;;;;;;13.43;37.02;100329.66;5022623;28;20039;-68